Time;durP1;ratioP1;P1;durP2;ratioP2;P2;SDS_P1;SDS_P2;PMS_P1;PMS_P2;Temp;Humidity;BMP_temperature;BMP_pressure;BME280_temperature;BME280_humidity;BME280_pressure;Samples;Min_cycle;Max_cycle;Signal;HPM_P1;HPM_P2
2021/10/05 00:00:08;;;;;;;0.00;0.00;;;10.70;99.90;;;;;;6233768;23;20016;-91
2021/10/05 00:02:35;;;;;;;0.00;0.00;;;10.70;99.90;;;;;;6234408;23;20024;-91
2021/10/05 00:05:02;;;;;;;0.00;0.00;;;10.60;99.90;;;;;;6234142;23;20052;-90
2021/10/05 00:07:29;;;;;;;0.00;0.00;;;10.60;99.90;;;;;;6233909;23;20021;-91
2021/10/05 00:09:55;;;;;;;0.10;0.10;;;10.60;99.90;;;;;;6234236;23;20515;-91
2021/10/05 00:12:23;;;;;;;0.00;0.00;;;10.50;99.90;;;;;;6233902;23;20322;-91
2021/10/05 00:14:50;;;;;;;0.00;0.00;;;10.50;99.90;;;;;;6233899;23;20016;-91
2021/10/05 00:17:21;;;;;;;0.00;0.00;;;10.50;99.90;;;;;;6208758;23;20024;-91
2021/10/05 00:19:48;;;;;;;0.08;0.08;;;10.40;99.90;;;;;;6234226;23;20068;-91
2021/10/05 00:22:16;;;;;;;0.00;0.00;;;10.30;99.90;;;;;;6234004;23;20016;-91
2021/10/05 00:24:43;;;;;;;0.10;0.10;;;10.30;99.90;;;;;;6209453;23;20021;-91
2021/10/05 00:27:10;;;;;;;0.10;0.10;;;10.30;99.90;;;;;;6233427;23;20020;-91
2021/10/05 00:29:37;;;;;;;0.00;0.00;;;10.20;99.90;;;;;;6209003;23;20081;-92
2021/10/05 00:32:04;;;;;;;0.00;0.00;;;10.20;99.90;;;;;;6233745;23;20020;-91
2021/10/05 00:34:32;;;;;;;0.00;0.00;;;10.20;99.90;;;;;;6234036;23;20039;-92
2021/10/05 00:36:59;;;;;;;0.00;0.00;;;9.80;99.90;;;;;;6233552;23;20396;-91
2021/10/05 00:39:26;;;;;;;0.00;0.00;;;10.10;99.90;;;;;;6233597;23;20016;-91
2021/10/05 00:41:55;;;;;;;0.00;0.00;;;10.10;99.90;;;;;;6209515;23;20022;-92
2021/10/05 00:44:36;;;;;;;0.10;0.10;;;10.10;99.90;;;;;;6233250;23;20056;-91
2021/10/05 00:47:11;;;;;;;0.00;0.00;;;10.10;99.90;;;;;;6233404;23;20099;-91
2021/10/05 00:49:40;;;;;;;0.00;0.00;;;10.00;99.90;;;;;;6233820;23;20016;-92
2021/10/05 00:52:08;;;;;;;0.00;0.00;;;10.00;99.90;;;;;;6233500;23;20024;-91
2021/10/05 00:54:36;;;;;;;0.00;0.00;;;9.90;99.90;;;;;;6234106;23;20020;-91
2021/10/05 00:57:04;;;;;;;0.00;0.00;;;9.90;99.90;;;;;;6233292;23;20017;-91
2021/10/05 00:59:33;;;;;;;0.10;0.10;;;10.00;99.90;;;;;;6233140;23;20082;-91
2021/10/05 01:02:11;;;;;;;0.00;0.00;;;9.90;99.90;;;;;;6209267;23;20200;-91
2021/10/05 01:04:40;;;;;;;0.00;0.00;;;9.90;99.90;;;;;;6233851;23;20025;-91
2021/10/05 01:07:14;;;;;;;0.10;0.10;;;9.90;99.90;;;;;;6233073;23;20021;-91
2021/10/05 01:09:42;;;;;;;0.10;0.10;;;9.90;99.90;;;;;;6233479;23;20445;-91
2021/10/05 01:12:09;;;;;;;0.05;0.05;;;9.80;99.90;;;;;;6233001;23;20016;-91
2021/10/05 01:14:36;;;;;;;0.00;0.00;;;9.80;99.90;;;;;;6209034;23;20021;-91
2021/10/05 01:17:04;;;;;;;0.00;0.00;;;9.80;99.90;;;;;;6208877;23;20078;-91
2021/10/05 01:19:30;;;;;;;0.00;0.00;;;9.70;99.90;;;;;;6233290;23;20020;-91
2021/10/05 01:21:57;;;;;;;0.00;0.00;;;9.70;99.90;;;;;;6233681;23;20079;-92
2021/10/05 01:24:25;;;;;;;0.00;0.00;;;9.70;99.90;;;;;;6233360;23;20099;-92
2021/10/05 01:26:56;;;;;;;0.03;0.03;;;9.70;99.90;;;;;;6258293;23;20353;-91
2021/10/05 01:29:25;;;;;;;0.00;0.00;;;9.70;99.90;;;;;;6233416;23;20046;-91
2021/10/05 01:31:56;;;;;;;0.00;0.00;;;9.70;99.90;;;;;;6233592;23;20512;-92
2021/10/05 01:34:23;;;;;;;0.08;0.08;;;9.70;99.90;;;;;;6233335;23;20078;-91
2021/10/05 01:36:52;;;;;;;0.00;0.00;;;9.70;99.90;;;;;;6233077;23;20163;-91
2021/10/05 01:39:22;;;;;;;0.00;0.00;;;9.70;99.90;;;;;;6232926;23;20009;-91
2021/10/05 01:41:51;;;;;;;0.03;0.03;;;9.90;99.90;;;;;;6233331;23;20020;-91
2021/10/05 01:44:18;;;;;;;0.10;0.10;;;9.60;99.90;;;;;;6233173;23;20027;-91
2021/10/05 01:46:44;;;;;;;0.00;0.00;;;9.60;99.90;;;;;;6233823;23;20020;-92
2021/10/05 01:49:15;;;;;;;0.00;0.00;;;9.60;99.90;;;;;;6232955;23;20103;-91
2021/10/05 01:51:42;;;;;;;0.00;0.00;;;9.60;99.90;;;;;;6232972;23;20020;-91
2021/10/05 01:54:10;;;;;;;0.00;0.00;;;9.60;99.90;;;;;;6232998;23;20095;-91
2021/10/05 01:56:37;;;;;;;0.08;0.08;;;9.60;99.90;;;;;;6233171;23;20017;-92
2021/10/05 01:59:04;;;;;;;0.00;0.00;;;9.50;99.90;;;;;;6233122;23;20028;-91
2021/10/05 02:01:31;;;;;;;0.32;0.10;;;9.50;99.90;;;;;;6208197;23;20044;-91
2021/10/05 02:03:58;;;;;;;0.00;0.00;;;9.50;99.90;;;;;;6208229;23;20055;-92
2021/10/05 02:06:25;;;;;;;0.00;0.00;;;9.60;99.90;;;;;;6232720;23;20119;-92
2021/10/05 02:08:52;;;;;;;0.00;0.00;;;9.50;99.90;;;;;;6233192;23;20034;-92
2021/10/05 02:11:19;;;;;;;0.00;0.00;;;9.50;99.90;;;;;;6232573;23;20020;-91
2021/10/05 02:13:45;;;;;;;0.08;0.08;;;9.50;99.90;;;;;;6183722;23;20019;-92
2021/10/05 02:16:12;;;;;;;0.00;0.00;;;9.50;99.90;;;;;;6232962;23;20019;-90
2021/10/05 02:18:39;;;;;;;0.00;0.00;;;9.50;99.90;;;;;;6233166;23;20071;-92
2021/10/05 02:21:06;;;;;;;0.10;0.10;;;9.40;99.90;;;;;;6208575;23;20063;-92
2021/10/05 02:26:20;;;;;;;0.00;0.00;;;9.40;99.90;;;;;;6236468;23;20029;-92
2021/10/05 02:28:47;;;;;;;0.00;0.00;;;9.30;99.90;;;;;;6233065;23;20023;-92
2021/10/05 02:31:14;;;;;;;0.00;0.00;;;9.30;99.90;;;;;;6208023;23;20091;-90
2021/10/05 02:33:41;;;;;;;0.00;0.00;;;;;;;;;;6183376;23;20107;-92
2021/10/05 02:36:11;;;;;;;0.00;0.00;;;9.30;99.90;;;;;;6233351;23;20016;-92
2021/10/05 02:38:37;;;;;;;0.10;0.10;;;9.30;99.90;;;;;;6207675;23;20052;-92
2021/10/05 02:41:04;;;;;;;0.00;0.00;;;9.30;99.90;;;;;;6234932;23;20519;-91
2021/10/05 02:43:31;;;;;;;0.10;0.10;;;9.20;99.90;;;;;;6234905;23;20012;-92
2021/10/05 02:45:58;;;;;;;0.00;0.00;;;9.20;99.90;;;;;;6235154;23;20496;-92
2021/10/05 02:48:25;;;;;;;0.00;0.00;;;9.20;99.90;;;;;;6209759;23;20016;-92
2021/10/05 02:50:52;;;;;;;0.10;0.10;;;9.20;99.90;;;;;;6235031;23;20368;-91
2021/10/05 02:53:19;;;;;;;0.00;0.00;;;9.20;99.90;;;;;;6234380;23;20017;-91
2021/10/05 02:55:47;;;;;;;0.10;0.10;;;9.10;99.90;;;;;;6235018;23;20016;-92
2021/10/05 02:58:15;;;;;;;0.10;0.10;;;9.20;99.90;;;;;;6239263;23;20019;-91
2021/10/05 03:00:44;;;;;;;0.00;0.00;;;9.20;99.90;;;;;;6239675;23;20019;-92
2021/10/05 03:03:11;;;;;;;0.00;0.00;;;9.20;99.90;;;;;;6239871;23;20042;-92
2021/10/05 03:05:38;;;;;;;0.10;0.10;;;9.20;99.90;;;;;;6239784;23;20016;-92
2021/10/05 03:08:06;;;;;;;0.00;0.00;;;9.20;99.90;;;;;;6240136;23;20020;-92
2021/10/05 03:10:34;;;;;;;0.00;0.00;;;9.20;99.90;;;;;;6239807;23;20078;-91
2021/10/05 03:13:01;;;;;;;0.10;0.10;;;9.20;99.90;;;;;;6239663;23;20039;-92
2021/10/05 03:15:28;;;;;;;0.10;0.10;;;9.20;99.90;;;;;;6239985;23;20012;-91
2021/10/05 03:17:55;;;;;;;0.00;0.00;;;9.20;99.90;;;;;;6190269;23;20065;-91
2021/10/05 03:20:22;;;;;;;0.00;0.00;;;9.20;99.90;;;;;;6239812;23;20097;-92
2021/10/05 03:22:48;;;;;;;0.10;0.10;;;9.20;99.90;;;;;;6239799;23;20095;-92
2021/10/05 03:25:15;;;;;;;0.10;0.10;;;9.20;99.90;;;;;;6215364;23;20020;-92
2021/10/05 03:27:42;;;;;;;0.10;0.10;;;9.20;99.90;;;;;;6214317;23;20016;-92
2021/10/05 03:30:10;;;;;;;0.00;0.00;;;9.20;99.90;;;;;;6240051;23;20099;-93
2021/10/05 03:32:37;;;;;;;0.00;0.00;;;9.20;99.90;;;;;;6239669;23;20520;-92
2021/10/05 03:35:04;;;;;;;0.00;0.00;;;9.20;99.90;;;;;;6239852;23;20047;-93
2021/10/05 03:37:31;;;;;;;0.00;0.00;;;9.20;99.90;;;;;;6239274;23;20050;-92
2021/10/05 03:39:58;;;;;;;0.10;0.10;;;9.20;99.90;;;;;;6239584;23;20082;-92
2021/10/05 03:42:27;;;;;;;0.05;0.05;;;9.20;99.90;;;;;;6239155;23;20086;-92
2021/10/05 03:44:54;;;;;;;0.10;0.10;;;9.40;99.90;;;;;;6239180;23;20103;-92
2021/10/05 03:47:21;;;;;;;0.05;0.05;;;9.30;99.90;;;;;;6239533;23;20063;-91
2021/10/05 03:49:48;;;;;;;0.00;0.00;;;9.20;99.90;;;;;;6239015;23;20020;-92
2021/10/05 03:52:14;;;;;;;0.10;0.10;;;9.10;99.90;;;;;;6214119;23;20341;-92
2021/10/05 03:54:42;;;;;;;0.10;0.10;;;9.10;99.90;;;;;;6239254;23;20043;-92
2021/10/05 03:57:09;;;;;;;0.00;0.00;;;9.20;99.90;;;;;;6239362;23;20562;-92
2021/10/05 03:59:36;;;;;;;0.10;0.10;;;9.10;99.90;;;;;;6219290;23;20104;-92
2021/10/05 04:02:03;;;;;;;0.10;0.10;;;9.10;99.90;;;;;;6214140;23;20028;-92
2021/10/05 04:04:30;;;;;;;0.10;0.10;;;9.10;99.90;;;;;;6239438;23;20085;-91
2021/10/05 04:06:56;;;;;;;0.08;0.08;;;9.10;99.90;;;;;;6239522;23;20371;-92
2021/10/05 04:09:23;;;;;;;0.00;0.00;;;9.10;99.90;;;;;;6239461;23;20077;-92
2021/10/05 04:11:50;;;;;;;0.10;0.10;;;9.10;99.90;;;;;;6239149;23;20066;-91
2021/10/05 04:14:20;;;;;;;0.00;0.00;;;9.20;99.90;;;;;;6239034;23;20012;-92
2021/10/05 04:16:46;;;;;;;0.00;0.00;;;9.10;99.90;;;;;;6238773;23;20454;-92
2021/10/05 04:19:13;;;;;;;0.08;0.08;;;9.10;99.90;;;;;;6239543;23;20019;-92
2021/10/05 04:21:40;;;;;;;0.03;0.03;;;9.20;99.90;;;;;;6238885;23;20043;-93
2021/10/05 04:24:07;;;;;;;0.00;0.00;;;9.10;99.90;;;;;;6239434;23;20023;-93
2021/10/05 04:26:34;;;;;;;0.00;0.00;;;9.10;99.90;;;;;;6238684;23;20020;-92
2021/10/05 04:29:03;;;;;;;0.00;0.00;;;9.20;99.90;;;;;;6239488;23;20055;-92
2021/10/05 04:31:30;;;;;;;0.08;0.08;;;9.10;99.90;;;;;;6239133;23;20024;-91
2021/10/05 04:33:56;;;;;;;0.00;0.00;;;9.10;99.90;;;;;;6238851;23;20012;-92
2021/10/05 04:36:23;;;;;;;0.00;0.00;;;9.10;99.90;;;;;;6239424;23;20023;-92
2021/10/05 04:38:50;;;;;;;0.10;0.10;;;9.20;99.90;;;;;;6238595;23;20012;-92
2021/10/05 04:41:17;;;;;;;0.10;0.10;;;9.10;99.90;;;;;;6238697;23;20396;-92
2021/10/05 04:43:43;;;;;;;0.08;0.08;;;9.10;99.90;;;;;;6189300;22;20052;-91
2021/10/05 04:46:10;;;;;;;0.10;0.10;;;9.10;99.90;;;;;;6239486;23;20472;-92
2021/10/05 04:48:37;;;;;;;0.10;0.10;;;9.10;99.90;;;;;;6238715;23;20016;-91
2021/10/05 04:51:04;;;;;;;0.10;0.10;;;9.10;99.90;;;;;;6214219;23;20016;-92
2021/10/05 04:53:30;;;;;;;0.10;0.10;;;9.10;99.90;;;;;;6238898;23;20103;-92
2021/10/05 04:55:57;;;;;;;0.15;0.15;;;9.00;99.90;;;;;;6238953;23;20456;-92
2021/10/05 04:58:24;;;;;;;0.00;0.00;;;9.10;99.90;;;;;;6214173;23;20094;-92
2021/10/05 05:00:50;;;;;;;0.10;0.10;;;9.10;99.90;;;;;;6213605;23;20074;-93
2021/10/05 05:03:17;;;;;;;0.10;0.10;;;9.00;99.90;;;;;;6238828;23;20020;-92
2021/10/05 05:05:44;;;;;;;0.10;0.10;;;9.00;99.90;;;;;;6238681;23;20345;-92
2021/10/05 05:08:11;;;;;;;0.00;0.00;;;9.00;99.90;;;;;;6238776;23;20051;-92
2021/10/05 05:10:38;;;;;;;0.00;0.00;;;9.00;99.90;;;;;;6238194;23;20091;-93
2021/10/05 05:13:04;;;;;;;0.10;0.10;;;9.00;99.90;;;;;;6238761;23;20017;-92
2021/10/05 05:15:31;;;;;;;0.10;0.10;;;9.00;99.90;;;;;;6238267;23;20019;-92
2021/10/05 05:17:58;;;;;;;0.00;0.00;;;9.00;99.90;;;;;;6238564;23;20012;-93
2021/10/05 05:20:25;;;;;;;0.10;0.10;;;9.00;99.90;;;;;;6238433;23;20438;-92
2021/10/05 05:22:52;;;;;;;0.05;0.05;;;9.00;99.90;;;;;;6213484;23;20570;-91
2021/10/05 05:25:19;;;;;;;0.10;0.10;;;9.00;99.90;;;;;;6238332;23;20016;-93
2021/10/05 05:27:45;;;;;;;0.10;0.10;;;9.00;99.90;;;;;;6238491;23;20123;-92
2021/10/05 05:30:12;;;;;;;0.13;0.13;;;9.00;99.90;;;;;;6238471;23;20027;-92
2021/10/05 05:32:39;;;;;;;0.00;0.00;;;8.90;99.90;;;;;;6238075;23;20020;-92
2021/10/05 05:35:06;;;;;;;0.30;0.20;;;9.00;99.90;;;;;;6239408;23;20090;-93
2021/10/05 05:37:33;;;;;;;0.10;0.10;;;9.00;99.90;;;;;;6238204;23;20054;-92
2021/10/05 05:40:00;;;;;;;0.10;0.10;;;9.00;99.90;;;;;;6212856;23;20016;-92
2021/10/05 05:42:26;;;;;;;0.00;0.00;;;9.30;99.90;;;;;;6213485;23;20071;-92
2021/10/05 05:44:53;;;;;;;0.05;0.05;;;8.90;99.90;;;;;;6237917;23;20359;-92
2021/10/05 05:47:20;;;;;;;0.85;0.85;;;8.90;99.90;;;;;;6215900;23;20106;-92
2021/10/05 05:49:47;;;;;;;0.00;0.00;;;8.90;99.90;;;;;;6237806;23;20027;-95
2021/10/05 05:52:16;;;;;;;0.05;0.05;;;8.90;99.90;;;;;;6215363;23;20016;-94
2021/10/05 05:54:43;;;;;;;0.10;0.10;;;9.00;99.90;;;;;;6238512;23;20078;-94
2021/10/05 05:57:10;;;;;;;0.00;0.00;;;8.90;99.90;;;;;;6237980;23;20020;-92
2021/10/05 05:59:40;;;;;;;0.10;0.10;;;8.90;99.90;;;;;;6238077;23;20472;-92
2021/10/05 06:02:07;;;;;;;1.52;0.17;;;8.90;99.90;;;;;;6237902;23;20107;-91
2021/10/05 06:04:34;;;;;;;0.00;0.00;;;8.80;99.90;;;;;;6238022;23;20058;-92
2021/10/05 06:07:04;;;;;;;0.00;0.00;;;8.80;99.90;;;;;;6238015;23;20121;-91
2021/10/05 06:09:33;;;;;;;0.10;0.10;;;8.10;99.90;;;;;;6237932;23;20020;-91
2021/10/05 06:12:15;;;;;;;0.20;0.20;;;8.90;99.90;;;;;;6214597;23;20024;-91
2021/10/05 06:14:51;;;;;;;0.10;0.10;;;8.90;99.90;;;;;;6238549;23;20091;-93
2021/10/05 06:17:21;;;;;;;0.00;0.00;;;9.00;99.90;;;;;;6238836;23;20282;-93
2021/10/05 06:23:11;;;;;;;0.10;0.10;;;9.00;99.90;;;;;;6263205;23;20023;-92
2021/10/05 06:25:51;;;;;;;0.10;0.10;;;9.00;99.90;;;;;;6214866;23;20024;-93
2021/10/05 06:29:20;;;;;;;0.05;0.05;;;9.10;99.90;;;;;;6216654;23;20027;-96
2021/10/05 06:32:04;;;;;;;0.00;0.00;;;9.00;99.90;;;;;;6240423;23;20020;-93
2021/10/05 06:39:39;;;;;;;0.00;0.00;;;9.50;99.90;;;;;;6143774;23;20100;-94
2021/10/05 06:42:42;;;;;;;;;;;;;;;;;;;;;
2021/10/05 06:49:23;;;;;;;0.00;0.00;;;9.30;99.90;;;;;;6100740;23;20340;-91
2021/10/05 07:50:56;;;;;;;0.00;0.00;;;9.80;99.90;;;;;;5939630;24;20026;-91
2021/10/05 07:54:28;;;;;;;;;;;;;;;;;;;;;
2021/10/05 07:58:10;;;;;;;0.10;0.10;;;9.80;99.90;;;;;;5970404;24;20408;-95
2021/10/05 08:04:58;;;;;;;0.00;0.00;;;9.90;99.90;;;;;;5975014;23;20020;-96
2021/10/05 08:11:02;;;;;;;0.00;0.00;;;9.90;99.90;;;;;;5970341;24;20387;-92
2021/10/05 08:13:32;;;;;;;0.10;0.10;;;10.00;99.90;;;;;;5964118;24;20024;-92
2021/10/05 08:16:45;;;;;;;;;;;;;;;;;;;;;
2021/10/05 08:22:56;;;;;;;0.00;0.00;;;10.10;99.90;;;;;;6039252;23;20019;-94
2021/10/05 08:25:24;;;;;;;0.00;0.00;;;10.30;99.90;;;;;;6028332;23;20027;-93
2021/10/05 08:27:51;;;;;;;0.00;0.00;;;10.40;99.90;;;;;;6211529;23;20051;-96
2021/10/05 08:30:43;;;;;;;0.00;0.00;;;10.50;99.90;;;;;;6209053;23;20025;-95
2021/10/05 08:33:37;;;;;;;0.00;0.00;;;10.30;99.90;;;;;;6233778;23;20079;-96
2021/10/05 08:36:11;;;;;;;0.00;0.00;;;10.90;99.90;;;;;;6218554;23;20012;-96
2021/10/05 08:39:14;;;;;;;0.00;0.00;;;11.00;99.90;;;;;;6235666;23;20056;-95
2021/10/05 08:41:44;;;;;;;0.00;0.00;;;11.10;99.90;;;;;;6234201;23;20099;-93
2021/10/05 08:44:12;;;;;;;0.00;0.00;;;11.20;99.90;;;;;;6233842;23;20024;-93
2021/10/05 08:46:44;;;;;;;0.00;0.00;;;11.30;99.90;;;;;;6234228;23;20027;-94
2021/10/05 08:49:11;;;;;;;0.00;0.00;;;11.30;99.90;;;;;;6233139;23;20031;-93
2021/10/05 08:55:20;;;;;;;0.00;0.00;;;11.40;99.90;;;;;;6248375;23;20040;-95
2021/10/05 08:58:09;;;;;;;0.00;0.00;;;11.40;99.90;;;;;;6234399;23;20389;-96
2021/10/05 09:00:37;;;;;;;0.00;0.00;;;11.50;99.90;;;;;;6233427;23;20021;-92
2021/10/05 09:03:04;;;;;;;0.00;0.00;;;11.50;99.90;;;;;;6209084;23;20009;-92
2021/10/05 09:05:34;;;;;;;0.00;0.00;;;11.60;99.90;;;;;;6234420;23;20384;-95
2021/10/05 09:08:01;;;;;;;0.00;0.00;;;11.70;99.90;;;;;;6214654;23;20452;-96
2021/10/05 09:10:33;;;;;;;0.00;0.00;;;11.80;99.90;;;;;;6232980;23;20120;-95
2021/10/05 09:13:10;;;;;;;0.00;0.00;;;11.90;99.90;;;;;;6234039;23;20016;-96
2021/10/05 09:15:38;;;;;;;0.00;0.00;;;12.00;99.90;;;;;;6237778;23;20017;-96
2021/10/05 09:18:08;;;;;;;0.15;0.10;;;12.30;99.90;;;;;;6233702;23;20017;-96
2021/10/05 09:20:44;;;;;;;0.00;0.00;;;12.50;99.90;;;;;;6240631;23;20020;-96
2021/10/05 09:23:12;;;;;;;0.00;0.00;;;12.90;99.90;;;;;;6208051;23;20056;-96
2021/10/05 09:26:29;;;;;;;0.00;0.00;;;13.10;99.90;;;;;;6234909;23;20139;-95
2021/10/05 09:29:10;;;;;;;0.00;0.00;;;13.40;99.90;;;;;;6172914;23;20025;-96
2021/10/05 10:27:59;;;;;;;0.17;0.17;;;15.70;99.90;;;;;;6341924;22;1385480;-89
2021/10/05 10:30:30;;;;;;;0.00;0.00;;;15.90;99.90;;;;;;6365057;22;20018;-94
2021/10/05 10:33:03;;;;;;;0.00;0.00;;;15.60;99.90;;;;;;6364661;22;20017;-95
2021/10/05 10:36:17;;;;;;;0.08;0.08;;;15.60;99.90;;;;;;6366106;22;20007;-96
2021/10/05 11:21:35;;;;;;;0.17;0.17;;;16.20;99.90;;;;;;6389979;22;20071;-86
2021/10/05 11:24:02;;;;;;;0.00;0.00;;;16.20;99.90;;;;;;6335033;22;20022;-89
2021/10/05 11:26:35;;;;;;;0.10;0.10;;;16.30;99.90;;;;;;6362534;22;20331;-91
2021/10/05 11:29:03;;;;;;;0.60;0.28;;;16.20;99.90;;;;;;6362535;22;20010;-90
2021/10/05 11:31:51;;;;;;;0.25;0.17;;;16.20;99.90;;;;;;6363255;22;20011;-94
2021/10/05 11:34:19;;;;;;;0.03;0.03;;;16.20;99.90;;;;;;6362726;22;20014;-93
2021/10/05 11:36:46;;;;;;;0.00;0.00;;;16.10;99.90;;;;;;6362119;22;20007;-92
2021/10/05 11:39:27;;;;;;;0.28;0.13;;;16.10;99.90;;;;;;6362302;22;20046;-93
2021/10/05 11:42:14;;;;;;;0.20;0.20;;;16.10;99.90;;;;;;6362660;22;20090;-91
2021/10/05 11:44:47;;;;;;;0.10;0.10;;;16.20;99.90;;;;;;6362183;22;20089;-92
2021/10/05 11:47:20;;;;;;;0.03;0.03;;;16.40;99.90;;;;;;6362522;22;20330;-91
2021/10/05 11:49:59;;;;;;;0.45;0.15;;;16.40;99.90;;;;;;6363146;22;20338;-95
2021/10/05 11:52:35;;;;;;;0.40;0.25;;;15.90;99.90;;;;;;6362028;22;20089;-92
2021/10/05 11:55:06;;;;;;;0.10;0.10;;;16.40;99.90;;;;;;6361910;22;20014;-92
2021/10/05 11:57:34;;;;;;;0.10;0.10;;;16.40;99.90;;;;;;6362779;22;20021;-91
2021/10/05 12:00:05;;;;;;;0.30;0.30;;;16.40;99.90;;;;;;6362850;22;20102;-94
2021/10/05 12:02:36;;;;;;;0.08;0.03;;;16.40;99.90;;;;;;6388284;22;20010;-93
2021/10/05 12:05:30;;;;;;;0.00;0.00;;;16.40;99.90;;;;;;6362888;22;20014;-96
2021/10/05 12:07:57;;;;;;;0.00;0.00;;;16.50;99.90;;;;;;6336679;22;20014;-83
2021/10/05 12:10:34;;;;;;;0.10;0.10;;;16.50;99.90;;;;;;6361650;22;20007;-92
2021/10/05 12:13:01;;;;;;;0.00;0.00;;;16.50;99.90;;;;;;6361434;22;20364;-89
2021/10/05 12:15:30;;;;;;;0.05;0.05;;;16.40;99.90;;;;;;6336243;22;20018;-89
2021/10/05 12:18:06;;;;;;;0.10;0.10;;;16.40;99.90;;;;;;6361669;22;20015;-89
2021/10/05 12:20:35;;;;;;;0.10;0.10;;;16.40;99.90;;;;;;6361678;22;20438;-91
2021/10/05 12:23:07;;;;;;;0.05;0.03;;;16.50;99.90;;;;;;6335595;22;20010;-91
2021/10/05 12:25:41;;;;;;;0.20;0.10;;;16.60;99.90;;;;;;6362320;22;20007;-92
2021/10/05 12:29:20;;;;;;;0.10;0.10;;;16.60;99.90;;;;;;6363213;22;20018;-91
2021/10/05 12:31:58;;;;;;;0.10;0.10;;;16.30;99.90;;;;;;6306799;22;20014;-91
2021/10/05 12:34:36;;;;;;;0.10;0.08;;;16.60;99.90;;;;;;6363750;22;20017;-89
2021/10/05 12:41:11;;;;;;;0.00;0.00;;;16.70;99.90;;;;;;6227507;23;20017;-91
2021/10/05 12:43:56;;;;;;;0.00;0.00;;;16.80;99.90;;;;;;6202804;23;20052;-89
2021/10/05 12:46:23;;;;;;;0.00;0.00;;;16.80;99.90;;;;;;6373895;22;20007;-90
2021/10/05 12:49:06;;;;;;;0.00;0.00;;;16.80;99.90;;;;;;6336996;22;20024;-91
2021/10/05 12:51:47;;;;;;;0.00;0.00;;;16.70;99.90;;;;;;6362814;22;20011;-95
2021/10/05 12:54:20;;;;;;;0.00;0.00;;;16.60;99.90;;;;;;6361607;22;20014;-92
2021/10/05 12:56:51;;;;;;;0.10;0.10;;;16.70;99.90;;;;;;6361176;22;20055;-93
2021/10/05 12:59:18;;;;;;;0.00;0.00;;;16.80;99.90;;;;;;6361894;22;20021;-93
2021/10/05 13:01:54;;;;;;;0.03;0.03;;;16.70;99.90;;;;;;6361638;22;20063;-91
2021/10/05 13:04:30;;;;;;;0.00;0.00;;;16.70;99.90;;;;;;6336465;22;20006;-94
2021/10/05 13:06:57;;;;;;;0.10;0.10;;;16.70;99.90;;;;;;6362134;22;20014;-92
2021/10/05 13:09:41;;;;;;;0.00;0.00;;;16.70;99.90;;;;;;6362810;22;20018;-94
2021/10/05 13:12:08;;;;;;;0.05;0.05;;;16.70;99.90;;;;;;6363692;22;20041;-93
2021/10/05 13:14:34;;;;;;;0.00;0.00;;;16.80;99.90;;;;;;6363038;22;20021;-92
2021/10/05 13:17:03;;;;;;;0.03;0.03;;;16.80;99.90;;;;;;6361068;22;20022;-90
2021/10/05 13:19:40;;;;;;;0.10;0.10;;;16.90;99.90;;;;;;6362659;22;20014;-95
2021/10/05 13:22:09;;;;;;;0.10;0.10;;;16.50;99.90;;;;;;6361700;22;20045;-94
2021/10/05 13:24:40;;;;;;;0.25;0.10;;;17.00;99.90;;;;;;6362686;22;20501;-94
2021/10/05 13:42:47;;;;;;;;;;;;;;;;;;;;;
2021/10/05 13:50:02;;;;;;;;;;;;;;;;;;;;;
2021/10/05 13:52:34;;;;;;;0.10;0.10;;;16.10;99.90;;;;;;5940533;24;20082;-93
2021/10/05 13:55:04;;;;;;;0.00;0.00;;;16.50;99.90;;;;;;5901083;24;20547;-93
2021/10/05 13:57:49;;;;;;;0.00;0.00;;;16.50;99.90;;;;;;5927117;24;20490;-93
2021/10/05 14:00:46;;;;;;;0.00;0.00;;;16.50;99.90;;;;;;6088341;23;20015;-93
2021/10/05 19:51:45;;;;;;;;;;;;;;;;;;;;;
